Time;durP1;ratioP1;P1;durP2;ratioP2;P2;SDS_P1;SDS_P2;PMS_P1;PMS_P2;Temp;Humidity;BMP_temperature;BMP_pressure;BME280_temperature;BME280_humidity;BME280_pressure;Samples;Min_cycle;Max_cycle;Signal;HPM_P1;HPM_P2
2023/03/09 00:41:35;;;;;;;6.78;1.30;;;11.40;99.90;;;;;;4859063;29;20048;-89
2023/03/09 00:45:03;;;;;;;6.07;1.13;;;11.40;99.90;;;;;;4873671;29;20032;-88
2023/03/09 00:48:27;;;;;;;8.00;2.35;;;11.40;99.90;;;;;;4875824;29;20065;-87
2023/03/09 01:21:08;;;;;;;8.77;2.15;;;11.60;99.90;;;;;;5048347;23;20058;-87
2023/03/09 01:23:37;;;;;;;8.68;2.20;;;11.60;99.90;;;;;;4953192;29;20051;-86
2023/03/09 01:26:03;;;;;;;9.18;1.88;;;11.70;99.90;;;;;;4972178;28;20038;-87
2023/03/09 01:28:29;;;;;;;9.45;2.13;;;11.70;99.90;;;;;;4950928;28;20034;-87
2023/03/09 01:34:24;;;;;;;7.68;1.38;;;11.70;99.90;;;;;;4938050;28;20388;-84
2023/03/09 01:36:58;;;;;;;8.18;2.20;;;11.70;99.90;;;;;;4969640;28;20038;-87
2023/03/09 01:39:26;;;;;;;9.05;1.98;;;11.60;99.90;;;;;;4961190;28;20027;-89
2023/03/09 01:42:01;;;;;;;6.18;1.75;;;11.60;99.90;;;;;;4961486;28;20038;-88
2023/03/09 01:44:37;;;;;;;10.30;2.53;;;11.70;99.90;;;;;;4977776;28;20022;-87
2023/03/09 01:47:11;;;;;;;8.77;2.35;;;11.70;99.90;;;;;;4961782;28;20034;-88
2023/03/09 01:49:51;;;;;;;10.57;2.10;;;11.70;99.90;;;;;;4959508;28;20031;-87
2023/03/09 01:52:24;;;;;;;8.02;2.28;;;11.70;99.90;;;;;;4961469;28;20487;-88
2023/03/09 01:55:20;;;;;;;5.57;1.77;;;11.70;99.90;;;;;;4978879;28;20035;-87
2023/03/09 02:02:22;;;;;;;;;;;;;;;;;;;;;
2023/03/09 06:54:02;;;;;;;10.75;3.05;;;11.70;99.90;;;;;;4956590;28;20130;-87
2023/03/09 07:06:45;;;;;;;10.45;2.95;;;11.80;99.90;;;;;;4899777;29;20032;-84
2023/03/09 07:09:13;;;;;;;10.20;2.33;;;11.80;99.90;;;;;;4883709;29;20545;-83
2023/03/09 09:10:52;;;;;;;13.07;2.70;;;12.80;99.90;;;;;;4909547;29;20042;-86
2023/03/09 09:24:10;;;;;;;9.80;2.70;;;13.10;99.90;;;;;;4817062;29;20038;-85
2023/03/09 09:26:55;;;;;;;11.30;2.95;;;13.10;99.90;;;;;;4821727;29;20034;-88
2023/03/09 09:29:57;;;;;;;11.63;2.65;;;13.20;99.90;;;;;;4836391;29;20042;-88
2023/03/09 09:32:23;;;;;;;14.65;3.45;;;13.20;99.90;;;;;;4840431;29;20033;-70
2023/03/09 09:34:48;;;;;;;13.02;2.83;;;13.30;99.90;;;;;;4916916;29;20095;-70
2023/03/09 09:37:15;;;;;;;13.60;3.30;;;13.30;99.90;;;;;;4939204;29;20039;-75
2023/03/09 09:39:41;;;;;;;15.63;3.33;;;13.40;99.90;;;;;;4922670;29;20034;-73
2023/03/09 09:42:23;;;;;;;13.05;2.97;;;13.30;99.90;;;;;;4930551;29;20024;-80
2023/03/09 09:44:52;;;;;;;12.70;3.03;;;13.40;99.90;;;;;;4955194;29;20118;-77
2023/03/09 09:47:22;;;;;;;13.63;3.35;;;13.40;99.90;;;;;;4941634;29;20408;-80
2023/03/09 09:49:51;;;;;;;12.00;3.05;;;13.50;99.90;;;;;;4931226;29;20481;-69
2023/03/09 09:52:58;;;;;;;15.68;3.83;;;13.50;99.90;;;;;;4921013;29;20036;-70
2023/03/09 09:55:28;;;;;;;15.30;3.30;;;13.50;99.90;;;;;;4914503;29;20083;-70
2023/03/09 09:58:03;;;;;;;10.95;2.90;;;13.50;99.90;;;;;;4937775;29;20110;-68
2023/03/09 10:00:57;;;;;;;13.98;3.50;;;13.60;99.90;;;;;;4939089;29;20369;-69
2023/03/09 10:03:29;;;;;;;14.95;3.42;;;13.70;99.90;;;;;;4934902;29;20032;-71
2023/03/09 10:05:58;;;;;;;14.43;2.92;;;13.70;99.90;;;;;;4940680;29;20050;-71
2023/03/09 10:08:39;;;;;;;19.10;3.45;;;13.80;99.90;;;;;;4944936;29;20502;-71
2023/03/09 10:11:35;;;;;;;12.40;3.47;;;13.80;99.90;;;;;;4918042;29;20099;-72
2023/03/09 10:14:05;;;;;;;12.07;2.88;;;13.80;99.90;;;;;;4922998;29;20095;-81
2023/03/09 10:16:38;;;;;;;13.93;3.05;;;13.80;99.90;;;;;;4933800;29;20059;-84
2023/03/09 10:19:11;;;;;;;12.48;2.67;;;13.70;99.90;;;;;;4919060;29;20069;-79
2023/03/09 10:21:51;;;;;;;10.27;3.00;;;13.70;99.90;;;;;;4903298;29;20382;-79
2023/03/09 10:24:25;;;;;;;12.13;3.22;;;13.70;99.90;;;;;;4920653;29;20025;-83
2023/03/09 10:26:57;;;;;;;11.38;3.40;;;13.60;99.90;;;;;;4903508;29;20063;-82
2023/03/09 10:29:33;;;;;;;10.25;2.70;;;13.60;99.90;;;;;;4903409;29;20070;-82
2023/03/09 10:32:05;;;;;;;18.25;3.85;;;13.60;99.90;;;;;;4920774;29;20114;-80
2023/03/09 10:34:37;;;;;;;14.57;2.90;;;13.50;99.90;;;;;;4903833;29;20059;-77
2023/03/09 10:37:15;;;;;;;10.38;3.00;;;13.50;99.90;;;;;;4927972;29;20040;-81
2023/03/09 10:39:46;;;;;;;14.13;3.08;;;13.60;99.90;;;;;;4938949;29;20043;-85
2023/03/09 10:42:26;;;;;;;9.60;2.15;;;13.60;99.90;;;;;;4948440;29;20024;-81
2023/03/09 10:45:11;;;;;;;9.60;2.30;;;13.60;99.90;;;;;;4939182;29;20023;-85
2023/03/09 10:47:52;;;;;;;12.10;2.45;;;13.60;99.90;;;;;;4942462;29;20023;-82
2023/03/09 10:50:21;;;;;;;7.57;2.38;;;13.60;99.90;;;;;;4939370;29;20024;-77
2023/03/09 10:52:47;;;;;;;10.52;2.08;;;13.50;99.90;;;;;;4922265;29;20063;-76
2023/03/09 10:55:40;;;;;;;9.63;2.15;;;13.50;99.90;;;;;;4938739;29;20512;-75
2023/03/09 10:58:18;;;;;;;4.90;1.90;;;13.60;99.90;;;;;;4940471;29;20046;-70
2023/03/09 11:00:58;;;;;;;8.02;1.65;;;13.60;99.90;;;;;;4942540;29;20488;-73
2023/03/09 11:03:36;;;;;;;7.00;2.00;;;13.80;99.90;;;;;;4942954;29;20020;-75
2023/03/09 11:06:09;;;;;;;10.27;1.90;;;14.00;99.90;;;;;;4942475;29;20040;-70
2023/03/09 11:08:35;;;;;;;10.25;2.10;;;14.10;99.90;;;;;;4924359;29;20040;-70
2023/03/09 11:11:09;;;;;;;8.10;2.22;;;14.30;99.90;;;;;;4918443;29;20042;-71
2023/03/09 11:13:35;;;;;;;10.07;2.20;;;14.30;99.90;;;;;;4930552;29;20032;-70
2023/03/09 11:16:19;;;;;;;9.80;2.28;;;14.30;99.90;;;;;;4938226;29;20038;-70
2023/03/09 11:18:45;;;;;;;9.05;2.15;;;14.30;99.90;;;;;;4949492;28;20036;-70
2023/03/09 11:21:21;;;;;;;12.40;2.75;;;14.30;99.90;;;;;;4922974;29;20035;-69
2023/03/09 11:23:51;;;;;;;12.07;2.63;;;14.40;99.90;;;;;;4923316;29;20028;-70
2023/03/09 11:26:16;;;;;;;15.48;2.92;;;14.40;99.90;;;;;;4923006;29;20021;-70
2023/03/09 11:29:06;;;;;;;11.45;3.10;;;14.30;99.90;;;;;;4923103;29;20040;-71
2023/03/09 11:31:37;;;;;;;13.10;3.00;;;14.30;99.90;;;;;;4906117;29;20115;-73
2023/03/09 11:34:07;;;;;;;12.85;3.13;;;14.30;99.90;;;;;;4906303;29;20048;-75
2023/03/09 11:36:50;;;;;;;11.60;2.78;;;14.30;99.90;;;;;;4923090;29;20032;-75
2023/03/09 11:39:31;;;;;;;19.10;3.10;;;14.40;99.90;;;;;;4923297;29;20031;-74
2023/03/09 11:41:59;;;;;;;13.80;2.88;;;14.50;99.90;;;;;;4947950;29;20043;-72
2023/03/09 11:44:36;;;;;;;13.40;2.90;;;14.40;99.90;;;;;;4924787;29;20028;-77
2023/03/09 11:47:35;;;;;;;13.93;2.92;;;14.40;99.90;;;;;;4942104;29;20115;-72
2023/03/09 11:50:09;;;;;;;17.08;3.13;;;14.30;99.90;;;;;;4930121;29;20484;-73
2023/03/09 11:52:40;;;;;;;15.38;3.28;;;14.30;99.90;;;;;;4941700;29;20059;-76
2023/03/09 11:55:13;;;;;;;16.48;3.35;;;14.20;99.90;;;;;;4941613;29;20083;-77
2023/03/09 11:57:42;;;;;;;16.67;3.47;;;14.10;99.90;;;;;;4908751;29;20095;-77
2023/03/09 12:00:14;;;;;;;14.80;3.25;;;14.10;99.90;;;;;;4922552;29;20060;-76
2023/03/09 12:02:49;;;;;;;16.75;3.65;;;14.10;99.90;;;;;;4905816;29;20028;-76
2023/03/09 12:05:16;;;;;;;11.13;2.83;;;14.00;99.90;;;;;;4922403;29;20107;-74
2023/03/09 12:07:47;;;;;;;19.65;3.95;;;14.00;99.90;;;;;;4922663;29;20028;-76
2023/03/09 12:10:35;;;;;;;11.75;2.85;;;14.00;99.90;;;;;;4936212;29;20028;-75
2023/03/09 12:13:16;;;;;;;16.83;3.33;;;14.00;99.90;;;;;;4905460;29;20032;-76
2023/03/09 12:16:10;;;;;;;14.30;3.63;;;14.10;99.90;;;;;;4922084;29;20456;-75
2023/03/09 12:18:53;;;;;;;12.45;2.78;;;14.10;99.90;;;;;;4905052;29;20031;-75
2023/03/09 12:21:28;;;;;;;12.23;2.80;;;14.20;99.90;;;;;;4922526;29;20501;-75
2023/03/09 12:23:54;;;;;;;14.77;3.08;;;14.30;99.90;;;;;;4921937;29;20039;-78
2023/03/09 12:26:29;;;;;;;17.08;3.13;;;14.40;99.90;;;;;;4918313;29;20024;-75
2023/03/09 12:29:05;;;;;;;9.57;2.38;;;14.50;99.90;;;;;;4941423;29;20032;-74
2023/03/09 12:31:33;;;;;;;16.25;2.88;;;14.60;99.90;;;;;;4941078;29;20111;-74
2023/03/09 12:33:59;;;;;;;12.52;3.20;;;14.70;99.90;;;;;;4923971;29;20488;-74
2023/03/09 12:36:28;;;;;;;17.63;3.00;;;14.60;99.90;;;;;;4930615;29;20051;-75
2023/03/09 12:39:22;;;;;;;13.75;3.35;;;14.60;99.90;;;;;;4922091;29;20028;-74
2023/03/09 12:42:03;;;;;;;12.57;3.15;;;14.60;99.90;;;;;;4946344;29;20047;-73
2023/03/09 12:44:57;;;;;;;14.20;2.92;;;14.60;99.90;;;;;;4941288;29;20031;-73
2023/03/09 12:47:24;;;;;;;10.25;3.00;;;14.50;99.90;;;;;;4948610;28;20505;-73
2023/03/09 12:49:56;;;;;;;16.83;3.22;;;14.60;99.90;;;;;;4943371;29;20564;-73
2023/03/09 12:52:40;;;;;;;15.60;3.33;;;14.60;99.90;;;;;;4934444;29;20563;-75
2023/03/09 12:55:35;;;;;;;13.77;3.00;;;14.60;99.90;;;;;;4923667;29;20034;-74
2023/03/09 12:58:21;;;;;;;10.07;2.70;;;14.60;99.90;;;;;;4928198;29;20115;-76
2023/03/09 13:01:03;;;;;;;12.43;2.75;;;14.60;99.90;;;;;;4916708;29;20131;-81
2023/03/09 13:03:43;;;;;;;15.20;3.25;;;14.50;99.90;;;;;;4941302;29;20028;-74
2023/03/09 13:06:36;;;;;;;13.57;2.78;;;14.40;99.90;;;;;;4922110;29;20059;-76
2023/03/09 13:09:17;;;;;;;;;;;14.20;99.90;;;;;;4923217;29;20039;-80
2023/03/09 13:12:01;;;;;;;13.35;2.90;;;14.10;99.90;;;;;;4939994;29;20017;-79
2023/03/09 13:14:26;;;;;;;12.15;2.83;;;14.10;99.90;;;;;;4934574;29;20036;-78
2023/03/09 13:16:58;;;;;;;14.30;3.70;;;14.10;99.90;;;;;;4922348;29;20047;-78
2023/03/09 13:19:23;;;;;;;16.50;2.83;;;14.10;99.90;;;;;;4922746;29;20024;-79
2023/03/09 13:21:55;;;;;;;12.10;2.20;;;14.10;99.90;;;;;;4939148;29;20083;-77
2023/03/09 13:24:37;;;;;;;13.45;2.65;;;14.20;99.90;;;;;;4939006;29;20023;-76
2023/03/09 13:27:12;;;;;;;13.43;2.85;;;14.20;99.90;;;;;;4939438;29;20040;-76
2023/03/09 13:29:44;;;;;;;12.75;2.85;;;14.30;99.90;;;;;;4939658;29;20547;-77
2023/03/09 13:32:26;;;;;;;12.70;3.10;;;14.40;99.90;;;;;;4939689;29;20405;-76
2023/03/09 13:34:53;;;;;;;11.23;2.50;;;14.30;99.90;;;;;;4938429;29;20028;-76
2023/03/09 13:37:22;;;;;;;11.13;2.63;;;14.30;99.90;;;;;;4939878;29;20071;-76
2023/03/09 13:40:06;;;;;;;8.45;2.30;;;14.20;99.90;;;;;;4938977;29;20031;-77
2023/03/09 13:42:36;;;;;;;9.63;2.20;;;14.20;99.90;;;;;;4934813;29;20027;-77
2023/03/09 13:45:03;;;;;;;11.50;2.25;;;14.20;99.90;;;;;;4938386;29;20511;-76
2023/03/09 13:47:31;;;;;;;11.40;2.10;;;14.20;99.90;;;;;;4924855;29;20070;-76
2023/03/09 13:49:59;;;;;;;6.40;1.80;;;14.30;99.90;;;;;;4939419;29;20046;-76
2023/03/09 13:52:26;;;;;;;8.18;1.70;;;14.30;99.90;;;;;;4939163;29;20024;-76
2023/03/09 13:54:57;;;;;;;5.65;1.58;;;14.40;99.90;;;;;;4939939;29;20036;-76
2023/03/09 13:57:24;;;;;;;7.30;1.63;;;14.40;99.90;;;;;;4937764;29;20027;-80
2023/03/09 14:00:03;;;;;;;5.32;1.52;;;14.30;99.90;;;;;;4938089;29;20436;-77
2023/03/09 14:02:33;;;;;;;6.85;1.55;;;14.40;99.90;;;;;;4938930;29;20027;-76
2023/03/09 14:05:04;;;;;;;8.27;1.40;;;14.30;99.90;;;;;;4939899;29;20060;-74
2023/03/09 14:07:37;;;;;;;6.20;1.50;;;14.40;99.90;;;;;;4939465;29;20032;-74
2023/03/09 14:10:07;;;;;;;6.70;1.38;;;14.30;99.90;;;;;;4939653;29;20091;-81
2023/03/09 14:12:36;;;;;;;5.30;1.10;;;14.30;99.90;;;;;;4939118;29;20024;-77
2023/03/09 14:15:06;;;;;;;6.25;1.67;;;14.30;99.90;;;;;;4954562;29;20039;-74
2023/03/09 14:17:34;;;;;;;5.15;1.48;;;14.40;99.90;;;;;;4939361;29;20079;-76
2023/03/09 14:20:00;;;;;;;4.90;1.38;;;14.30;99.90;;;;;;4939774;29;20066;-77
2023/03/09 14:22:28;;;;;;;6.40;1.25;;;14.20;99.90;;;;;;4939716;29;20016;-80
2023/03/09 14:24:54;;;;;;;4.20;1.30;;;14.10;99.90;;;;;;4922037;29;20115;-76
2023/03/09 14:27:35;;;;;;;5.55;1.30;;;14.00;99.90;;;;;;4939686;29;20055;-76
2023/03/09 14:30:40;;;;;;;4.82;1.20;;;13.90;99.90;;;;;;4939228;29;20496;-74
2023/03/09 14:33:24;;;;;;;6.50;1.10;;;13.80;99.90;;;;;;4924577;29;20059;-76
2023/03/09 14:36:03;;;;;;;6.50;1.42;;;13.70;99.90;;;;;;4926865;29;20032;-77
2023/03/09 14:38:28;;;;;;;6.07;1.55;;;13.60;99.90;;;;;;4942789;29;20229;-77
2023/03/09 14:41:03;;;;;;;4.30;1.23;;;13.60;99.90;;;;;;4934124;29;20082;-73
2023/03/09 14:43:37;;;;;;;4.18;1.38;;;13.60;99.90;;;;;;4930786;29;20530;-75
2023/03/09 14:46:24;;;;;;;4.35;1.23;;;13.50;99.90;;;;;;4943140;29;20038;-74
2023/03/09 14:48:53;;;;;;;4.20;1.20;;;13.40;99.90;;;;;;4929040;29;20028;-78
2023/03/09 14:51:25;;;;;;;6.05;1.85;;;13.40;99.90;;;;;;4926173;29;20055;-76
2023/03/09 14:54:06;;;;;;;6.20;1.33;;;13.30;99.90;;;;;;4942975;29;20456;-76
2023/03/09 14:56:32;;;;;;;4.32;1.10;;;13.30;99.90;;;;;;4925887;29;20048;-80
2023/03/09 14:59:08;;;;;;;4.47;1.13;;;13.30;99.90;;;;;;4925901;29;20492;-77
2023/03/09 15:01:35;;;;;;;7.80;1.60;;;13.20;99.90;;;;;;4940020;29;20507;-81
2023/03/09 15:04:01;;;;;;;5.32;1.10;;;13.20;99.90;;;;;;4923910;29;20671;-75
2023/03/09 15:06:27;;;;;;;7.70;1.50;;;13.30;99.90;;;;;;4937501;29;20016;-75
2023/03/09 15:08:53;;;;;;;7.82;1.20;;;13.30;99.90;;;;;;4921586;29;20039;-79
2023/03/09 15:11:21;;;;;;;4.50;1.20;;;13.30;99.90;;;;;;4922446;29;20032;-79
2023/03/09 15:13:47;;;;;;;5.93;1.73;;;13.30;99.90;;;;;;4945095;29;20028;-74
2023/03/09 15:16:13;;;;;;;5.93;1.33;;;13.30;99.90;;;;;;4940437;29;20036;-78
2023/03/09 15:18:39;;;;;;;3.28;0.93;;;13.30;99.90;;;;;;4923221;29;20397;-78
2023/03/09 15:21:05;;;;;;;8.10;1.60;;;13.30;99.90;;;;;;4933508;29;20103;-76
2023/03/09 15:23:31;;;;;;;6.65;1.40;;;13.40;99.90;;;;;;4940702;29;20027;-79
2023/03/09 15:25:56;;;;;;;7.15;1.58;;;13.40;99.90;;;;;;4937018;29;20030;-79
2023/03/09 15:28:22;;;;;;;6.05;1.25;;;13.40;99.90;;;;;;4938860;29;20043;-78
2023/03/09 15:30:48;;;;;;;7.57;1.55;;;13.40;99.90;;;;;;4934417;29;20043;-78
2023/03/09 15:33:13;;;;;;;8.80;1.75;;;13.30;99.90;;;;;;4923639;29;20039;-79
2023/03/09 15:35:42;;;;;;;4.85;1.15;;;13.40;99.90;;;;;;4938929;29;20404;-78
2023/03/09 15:38:08;;;;;;;8.25;2.10;;;13.40;99.90;;;;;;4941536;29;20031;-78
2023/03/09 15:40:34;;;;;;;9.23;1.90;;;13.40;99.90;;;;;;4944087;29;20020;-78
2023/03/09 15:42:59;;;;;;;7.20;1.80;;;13.40;99.90;;;;;;4940427;29;20886;-79
2023/03/09 15:45:25;;;;;;;8.45;2.20;;;13.40;99.90;;;;;;4923897;29;20026;-76
2023/03/09 15:47:54;;;;;;;8.00;2.22;;;13.50;99.90;;;;;;4941564;29;20035;-76
2023/03/09 15:50:20;;;;;;;11.35;2.05;;;13.50;99.90;;;;;;4941526;29;20034;-78
2023/03/09 15:52:46;;;;;;;10.23;2.05;;;13.50;99.90;;;;;;4922852;29;20107;-77
2023/03/09 15:55:12;;;;;;;8.32;1.85;;;13.50;99.90;;;;;;4923115;29;20583;-80
2023/03/09 15:57:38;;;;;;;10.45;2.83;;;13.60;99.90;;;;;;4941732;29;20516;-78
2023/03/09 16:00:05;;;;;;;12.13;2.38;;;13.60;99.90;;;;;;4935433;29;20114;-78
2023/03/09 16:02:30;;;;;;;11.15;1.95;;;13.60;99.90;;;;;;4935578;29;20087;-72
2023/03/09 16:04:56;;;;;;;7.55;1.88;;;13.80;99.90;;;;;;4923870;29;20045;-73
2023/03/09 16:07:22;;;;;;;10.45;2.22;;;13.70;99.90;;;;;;4940150;29;20059;-74
2023/03/09 16:09:47;;;;;;;8.45;2.00;;;13.60;99.90;;;;;;4939796;29;20448;-76
2023/03/09 16:12:13;;;;;;;8.02;1.80;;;13.50;99.90;;;;;;4941041;29;20062;-73
2023/03/09 16:14:39;;;;;;;8.38;2.00;;;13.50;99.90;;;;;;4938389;29;20032;-77
2023/03/09 16:17:04;;;;;;;10.05;1.92;;;13.50;99.90;;;;;;4938159;29;20034;-79
2023/03/09 16:19:30;;;;;;;10.25;2.13;;;13.40;99.90;;;;;;4932162;29;20068;-79
2023/03/09 16:21:56;;;;;;;8.80;2.17;;;13.40;99.90;;;;;;4941315;29;20031;-78
2023/03/09 16:24:21;;;;;;;8.95;2.30;;;13.50;99.90;;;;;;4941059;29;20079;-78
2023/03/09 16:26:47;;;;;;;10.38;2.13;;;13.50;99.90;;;;;;4933767;29;20027;-71
2023/03/09 16:29:12;;;;;;;8.48;2.17;;;13.50;99.90;;;;;;4938395;29;20107;-76
2023/03/09 16:31:38;;;;;;;7.10;2.15;;;13.60;99.90;;;;;;4936367;29;20047;-76
2023/03/09 16:34:04;;;;;;;5.88;1.80;;;13.50;99.90;;;;;;4946477;29;20111;-78
2023/03/09 16:36:30;;;;;;;9.68;1.88;;;13.60;99.90;;;;;;4923790;29;20031;-75
2023/03/09 16:39:00;;;;;;;4.78;1.58;;;13.50;99.90;;;;;;4933162;29;20505;-78
2023/03/09 16:41:28;;;;;;;11.30;2.63;;;13.40;99.90;;;;;;4942892;29;20031;-74
2023/03/09 16:43:53;;;;;;;13.25;2.47;;;13.20;99.90;;;;;;4940947;29;20039;-74
2023/03/09 16:46:24;;;;;;;9.38;2.15;;;13.00;99.90;;;;;;4941010;29;20477;-74
2023/03/09 16:48:50;;;;;;;9.43;1.90;;;13.00;99.90;;;;;;4934468;29;20031;-73
2023/03/09 16:51:18;;;;;;;7.60;1.60;;;13.10;99.90;;;;;;4940787;29;20115;-74
2023/03/09 16:53:44;;;;;;;6.78;1.63;;;13.10;99.90;;;;;;4923313;29;20062;-71
2023/03/09 16:56:10;;;;;;;10.05;1.77;;;13.00;99.90;;;;;;4938450;29;20453;-73
2023/03/09 16:58:37;;;;;;;11.40;1.95;;;13.00;99.90;;;;;;4920585;29;20054;-71
2023/03/09 17:01:13;;;;;;;9.30;2.15;;;13.00;99.90;;;;;;4940322;29;20059;-72
2023/03/09 17:03:39;;;;;;;7.25;2.03;;;13.10;99.90;;;;;;4936581;29;20079;-73
2023/03/09 17:06:13;;;;;;;7.72;1.70;;;13.10;99.90;;;;;;4942066;29;20039;-70
2023/03/09 17:08:39;;;;;;;6.95;1.90;;;13.00;99.90;;;;;;4922168;29;20058;-70
2023/03/09 17:11:09;;;;;;;8.73;1.83;;;13.00;99.90;;;;;;4954708;29;20036;-72
2023/03/09 17:13:34;;;;;;;8.07;2.08;;;13.00;99.90;;;;;;4922532;29;20059;-73
2023/03/09 17:16:00;;;;;;;10.40;2.58;;;13.00;99.90;;;;;;4934116;29;20036;-72
2023/03/09 17:18:26;;;;;;;7.07;2.25;;;12.90;99.90;;;;;;4939436;29;20080;-78
2023/03/09 17:20:51;;;;;;;8.15;2.30;;;12.90;99.90;;;;;;4947683;29;20064;-75
2023/03/09 17:23:17;;;;;;;9.90;2.30;;;12.80;99.90;;;;;;4942349;29;20023;-73
2023/03/09 17:25:43;;;;;;;8.90;2.40;;;12.80;99.90;;;;;;4945423;29;20023;-72
2023/03/09 17:28:10;;;;;;;7.97;2.13;;;12.70;99.90;;;;;;4941838;29;20552;-73
2023/03/09 17:30:36;;;;;;;13.90;3.05;;;12.70;99.90;;;;;;4927954;29;20491;-73
2023/03/09 17:33:03;;;;;;;12.27;2.90;;;12.70;99.90;;;;;;4941118;29;20042;-73
2023/03/09 17:35:28;;;;;;;15.65;3.53;;;12.80;99.90;;;;;;4954925;29;20488;-73
2023/03/09 17:37:54;;;;;;;14.02;2.88;;;12.80;99.90;;;;;;4944898;29;20180;-73
2023/03/09 17:40:20;;;;;;;10.40;2.40;;;12.90;99.90;;;;;;4940315;29;20032;-72
2023/03/09 17:42:45;;;;;;;9.35;2.13;;;12.90;99.90;;;;;;4941608;29;20079;-71
2023/03/09 17:45:12;;;;;;;14.27;3.33;;;12.90;99.90;;;;;;4925291;29;20020;-69
2023/03/09 17:47:38;;;;;;;9.88;2.80;;;12.90;99.90;;;;;;4920505;29;20015;-72
2023/03/09 17:50:04;;;;;;;9.15;2.63;;;12.90;99.90;;;;;;4937350;29;20043;-71
2023/03/09 17:52:30;;;;;;;14.05;3.05;;;13.00;99.90;;;;;;4923407;29;20024;-69
2023/03/09 17:54:55;;;;;;;8.60;2.60;;;13.00;99.90;;;;;;4937000;29;20040;-68
2023/03/09 17:57:21;;;;;;;8.10;2.25;;;13.00;99.90;;;;;;4939299;29;20060;-72
2023/03/09 17:59:46;;;;;;;14.70;3.45;;;13.00;99.90;;;;;;4921004;29;20085;-69
2023/03/09 18:02:14;;;;;;;10.55;2.45;;;13.00;99.90;;;;;;4940448;29;20023;-69
2023/03/09 18:08:42;;;;;;;8.48;2.20;;;13.00;99.90;;;;;;4928439;29;20407;-85
2023/03/09 18:11:47;;;;;;;8.98;2.38;;;13.00;99.90;;;;;;4918369;29;20416;-84
2023/03/09 18:24:54;;;;;;;12.50;2.80;;;12.90;99.90;;;;;;4883670;29;20560;-82
2023/03/09 18:27:23;;;;;;;19.77;3.80;;;12.90;99.90;;;;;;4896619;29;20111;-81
2023/03/09 18:29:52;;;;;;;15.07;3.22;;;12.90;99.90;;;;;;4931528;29;20517;-83
2023/03/09 18:32:17;;;;;;;11.70;3.28;;;12.90;99.90;;;;;;4921852;29;20020;-80
2023/03/09 18:34:45;;;;;;;17.02;3.65;;;12.90;99.90;;;;;;4932524;29;20034;-80
2023/03/09 18:37:14;;;;;;;16.67;3.60;;;12.90;99.90;;;;;;4917232;29;20016;-81
2023/03/09 18:39:41;;;;;;;11.73;2.78;;;12.80;99.90;;;;;;4925920;29;20039;-79
2023/03/09 18:42:18;;;;;;;11.43;2.95;;;12.80;99.90;;;;;;4919504;29;20051;-81
2023/03/09 18:44:47;;;;;;;10.50;2.55;;;12.90;99.90;;;;;;4920893;29;20036;-81
2023/03/09 18:47:25;;;;;;;;;;;;;;;;;;;;;
2023/03/09 18:49:52;;;;;;;12.05;3.00;;;12.90;99.90;;;;;;4941809;29;20050;-83
2023/03/09 18:52:24;;;;;;;12.50;2.90;;;12.90;99.90;;;;;;4945676;28;20023;-83
2023/03/09 18:54:51;;;;;;;20.40;4.37;;;12.90;99.90;;;;;;4920324;29;20044;-84
2023/03/09 18:57:19;;;;;;;12.35;3.17;;;12.90;99.90;;;;;;4939539;29;20772;-83
2023/03/09 18:59:47;;;;;;;15.68;3.22;;;12.90;99.90;;;;;;4953687;29;20036;-82
2023/03/09 19:02:19;;;;;;;16.60;3.75;;;12.90;99.90;;;;;;4925597;29;20015;-85
2023/03/09 19:04:50;;;;;;;10.23;2.60;;;12.90;99.90;;;;;;4922063;29;20039;-87
2023/03/09 19:07:16;;;;;;;14.63;3.45;;;12.90;99.90;;;;;;4922241;29;20488;-84
2023/03/09 19:09:42;;;;;;;17.52;3.85;;;12.90;99.90;;;;;;4921100;29;20034;-82
2023/03/09 19:12:07;;;;;;;15.18;3.45;;;12.90;99.90;;;;;;4923991;29;20124;-86
2023/03/09 19:14:40;;;;;;;13.68;3.45;;;12.90;99.90;;;;;;4938120;29;20065;-83
2023/03/09 19:17:05;;;;;;;18.15;3.67;;;12.90;99.90;;;;;;4939199;29;20111;-84
2023/03/09 19:19:33;;;;;;;10.98;3.47;;;12.90;99.90;;;;;;4940827;29;20070;-81
2023/03/09 19:21:59;;;;;;;15.18;3.50;;;12.90;99.90;;;;;;4940711;29;20031;-84
2023/03/09 19:24:27;;;;;;;12.50;3.20;;;12.90;99.90;;;;;;4934086;29;20027;-90
2023/03/09 19:26:52;;;;;;;12.30;2.78;;;12.90;99.90;;;;;;4949879;29;20015;-84
2023/03/09 19:29:18;;;;;;;17.10;3.58;;;12.90;99.90;;;;;;4942011;29;20042;-82
2023/03/09 19:31:44;;;;;;;14.63;3.38;;;12.80;99.90;;;;;;4931507;29;20027;-82
2023/03/09 19:34:14;;;;;;;12.50;3.60;;;12.80;99.90;;;;;;4936047;29;20079;-80
2023/03/09 19:36:40;;;;;;;11.50;3.67;;;12.70;99.90;;;;;;4926467;29;20019;-85
2023/03/09 19:39:06;;;;;;;20.58;4.05;;;12.70;99.90;;;;;;4924168;29;20039;-81
2023/03/09 19:41:36;;;;;;;18.45;4.15;;;12.70;99.90;;;;;;4933399;29;20031;-80
2023/03/09 19:44:02;;;;;;;10.52;3.10;;;12.70;99.90;;;;;;4928378;29;20031;-84
2023/03/09 19:46:28;;;;;;;11.45;2.88;;;12.70;99.90;;;;;;4929486;29;20481;-84
2023/03/09 19:48:55;;;;;;;13.38;3.67;;;12.70;99.90;;;;;;4948723;29;20102;-88
2023/03/09 19:51:23;;;;;;;19.50;4.00;;;12.80;99.90;;;;;;4935332;29;20032;-83
2023/03/09 19:53:56;;;;;;;23.98;4.40;;;12.80;99.90;;;;;;4924488;29;20055;-89
2023/03/09 19:56:24;;;;;;;;;;;12.80;99.90;;;;;;4941661;29;20106;-84
2023/03/09 19:58:57;;;;;;;17.65;3.38;;;12.80;99.90;;;;;;4937095;29;20283;-87
2023/03/09 20:01:25;;;;;;;13.07;3.20;;;12.80;99.90;;;;;;4936144;29;20023;-86
2023/03/09 20:03:53;;;;;;;14.82;3.42;;;12.80;99.90;;;;;;4927422;29;20032;-87
2023/03/09 20:06:20;;;;;;;11.75;2.85;;;12.80;99.90;;;;;;4923173;29;20019;-81
2023/03/09 20:08:46;;;;;;;18.27;3.65;;;12.80;99.90;;;;;;4941443;29;20019;-83
2023/03/09 20:11:14;;;;;;;17.13;3.78;;;12.80;99.90;;;;;;4948230;29;20082;-82
2023/03/09 20:13:41;;;;;;;17.42;3.00;;;12.80;99.90;;;;;;4924627;29;20028;-81
2023/03/09 20:16:07;;;;;;;15.23;3.42;;;12.80;99.90;;;;;;4942213;29;20024;-86
2023/03/09 20:18:33;;;;;;;12.57;3.35;;;12.80;99.90;;;;;;4923951;29;20059;-88
2023/03/09 20:21:10;;;;;;;12.07;3.15;;;12.80;99.90;;;;;;4944072;29;20066;-87
2023/03/09 20:23:36;;;;;;;11.80;3.20;;;12.80;99.90;;;;;;4929988;29;20048;-85
2023/03/09 20:26:04;;;;;;;10.93;3.00;;;12.80;99.90;;;;;;4946854;29;20564;-87
2023/03/09 20:28:32;;;;;;;14.85;3.50;;;12.80;99.90;;;;;;4970409;28;20028;-86
2023/03/09 20:30:58;;;;;;;13.50;2.95;;;12.80;99.90;;;;;;4927405;29;20039;-80
2023/03/09 20:33:24;;;;;;;14.45;2.92;;;12.80;99.90;;;;;;4937626;29;20418;-77
2023/03/09 20:35:53;;;;;;;11.38;2.72;;;12.80;99.90;;;;;;4941674;29;20093;-82
2023/03/09 20:38:19;;;;;;;19.95;3.60;;;12.80;99.90;;;;;;4922829;29;20036;-80
2023/03/09 20:40:44;;;;;;;17.08;3.40;;;12.80;99.90;;;;;;4950918;29;20111;-79
2023/03/09 20:43:10;;;;;;;20.50;4.22;;;12.80;99.90;;;;;;4950970;29;20034;-79
2023/03/09 20:45:36;;;;;;;13.10;3.33;;;12.80;99.90;;;;;;4942836;29;20055;-79
2023/03/09 20:48:01;;;;;;;21.73;3.90;;;12.80;99.90;;;;;;4942095;29;20034;-79
2023/03/09 20:50:27;;;;;;;18.23;3.78;;;12.80;99.90;;;;;;4925465;29;20024;-78
2023/03/09 20:52:53;;;;;;;16.40;4.07;;;12.80;99.90;;;;;;4949766;29;20055;-83
2023/03/09 20:55:20;;;;;;;15.55;3.60;;;12.80;99.90;;;;;;4948525;29;20023;-83
2023/03/09 20:57:46;;;;;;;20.17;4.00;;;12.70;99.90;;;;;;4926174;29;20086;-81
2023/03/09 21:00:16;;;;;;;16.77;3.60;;;12.60;99.90;;;;;;4945011;29;20122;-81
2023/03/09 21:02:42;;;;;;;16.52;3.92;;;12.70;99.90;;;;;;4938297;29;20408;-82
2023/03/09 21:05:09;;;;;;;14.88;3.45;;;12.70;99.90;;;;;;4929512;29;20113;-84
2023/03/09 21:07:35;;;;;;;10.82;3.08;;;12.70;99.90;;;;;;4940709;29;20090;-80
2023/03/09 21:10:00;;;;;;;13.93;3.53;;;12.70;99.90;;;;;;4948238;29;20111;-75
2023/03/09 21:12:26;;;;;;;13.70;3.78;;;12.60;99.90;;;;;;4947970;29;20027;-75
2023/03/09 21:14:56;;;;;;;12.60;2.88;;;12.60;99.90;;;;;;4941970;29;20043;-75
2023/03/09 21:17:22;;;;;;;13.25;2.75;;;12.60;99.90;;;;;;4944435;29;20024;-75
2023/03/09 21:19:48;;;;;;;9.95;2.83;;;12.60;99.90;;;;;;4950687;29;20118;-76
2023/03/09 21:22:13;;;;;;;12.50;3.00;;;12.60;99.90;;;;;;4922028;29;20088;-76
2023/03/09 21:24:39;;;;;;;8.15;2.63;;;12.60;99.90;;;;;;4941510;29;20020;-77
2023/03/09 21:27:05;;;;;;;5.55;1.80;;;12.60;99.90;;;;;;4933390;29;20105;-78
2023/03/09 21:29:31;;;;;;;9.70;2.42;;;12.60;99.90;;;;;;4934229;29;20031;-80
2023/03/09 21:32:18;;;;;;;7.45;2.03;;;12.60;99.90;;;;;;4918161;29;20059;-82
2023/03/09 21:42:25;;;;;;;;;;;;;;;;;;;;;
2023/03/09 21:45:30;;;;;;;10.55;2.33;;;12.20;99.90;;;;;;4818937;29;20038;-82
2023/03/09 21:48:24;;;;;;;;;;;;;;;;;;;;;
2023/03/09 21:58:04;;;;;;;11.30;2.97;;;11.30;99.90;;;;;;4804653;29;20118;-83
2023/03/09 22:00:30;;;;;;;6.03;1.90;;;11.20;99.90;;;;;;4928235;29;20071;-81
2023/03/09 22:03:00;;;;;;;14.25;3.00;;;11.10;99.90;;;;;;4949931;29;20052;-76
2023/03/09 22:05:26;;;;;;;8.98;2.40;;;11.10;99.90;;;;;;4963908;28;20546;-76